sensor_id;sensor_type;location;lat;lon;timestamp;pressure;altitude;pressure_sealevel;temperature;humidity
77871;BME280;67067;46.850;7.578;2023-06-10T00:00:39;94974.00;;;16.12;56.35
77871;BME280;67067;46.850;7.578;2023-06-10T00:01:43;94972.13;;;16.13;56.23
77871;BME280;67067;46.850;7.578;2023-06-10T00:02:51;94979.34;;;16.12;56.90
77871;BME280;67067;46.850;7.578;2023-06-10T00:03:53;94978.84;;;16.10;56.37
77871;BME280;67067;46.850;7.578;2023-06-10T00:04:55;94976.47;;;16.09;56.58
77871;BME280;67067;46.850;7.578;2023-06-10T00:05:58;94980.25;;;16.08;56.78
77871;BME280;67067;46.850;7.578;2023-06-10T00:07:00;94976.63;;;15.98;57.42
77871;BME280;67067;46.850;7.578;2023-06-10T00:08:02;94981.75;;;15.95;57.30
77871;BME280;67067;46.850;7.578;2023-06-10T00:09:08;94976.19;;;15.91;57.26
77871;BME280;67067;46.850;7.578;2023-06-10T00:10:11;94977.56;;;15.88;57.27
77871;BME280;67067;46.850;7.578;2023-06-10T00:11:13;94983.69;;;15.89;57.32
77871;BME280;67067;46.850;7.578;2023-06-10T00:12:15;94973.91;;;15.84;57.90
77871;BME280;67067;46.850;7.578;2023-06-10T00:13:18;94981.09;;;15.84;57.71
77871;BME280;67067;46.850;7.578;2023-06-10T00:14:19;94983.50;;;15.85;57.29
77871;BME280;67067;46.850;7.578;2023-06-10T00:15:21;94977.66;;;15.83;57.47
77871;BME280;67067;46.850;7.578;2023-06-10T00:16:25;94984.34;;;15.81;57.62
77871;BME280;67067;46.850;7.578;2023-06-10T00:17:27;94983.84;;;15.79;57.90
77871;BME280;67067;46.850;7.578;2023-06-10T00:18:30;94981.50;;;15.77;57.68
77871;BME280;67067;46.850;7.578;2023-06-10T00:19:32;94988.69;;;15.76;57.47
77871;BME280;67067;46.850;7.578;2023-06-10T00:20:35;94987.41;;;15.74;57.58
77871;BME280;67067;46.850;7.578;2023-06-10T00:21:39;94982.06;;;15.74;57.72
77871;BME280;67067;46.850;7.578;2023-06-10T00:22:42;94989.78;;;15.75;57.60
77871;BME280;67067;46.850;7.578;2023-06-10T00:23:47;94983.84;;;15.79;57.59
77871;BME280;67067;46.850;7.578;2023-06-10T00:24:49;94977.44;;;15.80;57.81
77871;BME280;67067;46.850;7.578;2023-06-10T00:25:50;94981.41;;;15.82;57.71
77871;BME280;67067;46.850;7.578;2023-06-10T00:26:52;94973.59;;;15.86;57.50
77871;BME280;67067;46.850;7.578;2023-06-10T00:27:54;94970.94;;;15.86;57.68
77871;BME280;67067;46.850;7.578;2023-06-10T00:28:56;94970.44;;;15.84;57.79
77871;BME280;67067;46.850;7.578;2023-06-10T00:30:02;94971.81;;;15.81;57.80
77871;BME280;67067;46.850;7.578;2023-06-10T00:31:05;94972.59;;;15.82;57.72
77871;BME280;67067;46.850;7.578;2023-06-10T00:32:07;94975.56;;;15.80;58.12
77871;BME280;67067;46.850;7.578;2023-06-10T00:33:11;94975.25;;;15.82;57.66
77871;BME280;67067;46.850;7.578;2023-06-10T00:34:13;94966.97;;;15.83;58.09
77871;BME280;67067;46.850;7.578;2023-06-10T00:35:15;94974.19;;;15.83;57.97
77871;BME280;67067;46.850;7.578;2023-06-10T00:36:17;94977.94;;;15.82;58.21
77871;BME280;67067;46.850;7.578;2023-06-10T00:37:18;94962.50;;;15.79;58.07
77871;BME280;67067;46.850;7.578;2023-06-10T00:38:20;94964.69;;;15.76;58.55
77871;BME280;67067;46.850;7.578;2023-06-10T00:39:21;94971.59;;;15.78;58.31
77871;BME280;67067;46.850;7.578;2023-06-10T00:40:25;94966.25;;;15.78;58.47
77871;BME280;67067;46.850;7.578;2023-06-10T00:41:27;94963.91;;;15.76;58.22
77871;BME280;67067;46.850;7.578;2023-06-10T00:42:29;94964.41;;;15.78;58.12
77871;BME280;67067;46.850;7.578;2023-06-10T00:43:30;94959.84;;;15.79;58.48
77871;BME280;67067;46.850;7.578;2023-06-10T00:44:32;94957.84;;;15.70;59.41
77871;BME280;67067;46.850;7.578;2023-06-10T00:45:34;94962.69;;;15.68;58.86
77871;BME280;67067;46.850;7.578;2023-06-10T00:46:36;94959.28;;;15.63;59.69
77871;BME280;67067;46.850;7.578;2023-06-10T00:47:39;94958.28;;;15.58;59.26
77871;BME280;67067;46.850;7.578;2023-06-10T00:48:41;94957.66;;;15.48;60.45
77871;BME280;67067;46.850;7.578;2023-06-10T00:49:44;94953.25;;;15.38;60.41
77871;BME280;67067;46.850;7.578;2023-06-10T00:50:46;94963.56;;;15.44;60.27
77871;BME280;67067;46.850;7.578;2023-06-10T00:51:48;94959.75;;;15.51;59.80
77871;BME280;67067;46.850;7.578;2023-06-10T00:52:52;94961.03;;;15.53;59.41
77871;BME280;67067;46.850;7.578;2023-06-10T00:53:56;94964.56;;;15.49;60.19
77871;BME280;67067;46.850;7.578;2023-06-10T00:54:57;94958.66;;;15.52;59.05
77871;BME280;67067;46.850;7.578;2023-06-10T00:56:00;94962.00;;;15.43;59.81
77871;BME280;67067;46.850;7.578;2023-06-10T00:57:03;94959.91;;;15.40;59.97
77871;BME280;67067;46.850;7.578;2023-06-10T00:58:05;94959.41;;;15.38;59.84
77871;BME280;67067;46.850;7.578;2023-06-10T00:59:09;94962.56;;;15.40;59.71
77871;BME280;67067;46.850;7.578;2023-06-10T01:00:11;94963.06;;;15.42;59.71
77871;BME280;67067;46.850;7.578;2023-06-10T01:01:13;94960.19;;;15.39;59.76
77871;BME280;67067;46.850;7.578;2023-06-10T01:02:15;94960.47;;;15.37;59.76
77871;BME280;67067;46.850;7.578;2023-06-10T01:03:17;94960.41;;;15.42;59.49
77871;BME280;67067;46.850;7.578;2023-06-10T01:04:21;94964.16;;;15.41;59.78
77871;BME280;67067;46.850;7.578;2023-06-10T01:05:24;94964.16;;;15.41;59.33
77871;BME280;67067;46.850;7.578;2023-06-10T01:06:36;94963.84;;;15.43;59.40
77871;BME280;67067;46.850;7.578;2023-06-10T01:07:46;94958.34;;;15.34;60.08
77871;BME280;67067;46.850;7.578;2023-06-10T01:09:13;94955.66;;;15.39;59.80
77871;BME280;67067;46.850;7.578;2023-06-10T01:11:45;94954.75;;;15.44;59.58
77871;BME280;67067;46.850;7.578;2023-06-10T01:13:54;94952.81;;;15.50;59.33
77871;BME280;67067;46.850;7.578;2023-06-10T01:14:57;94961.84;;;15.54;59.22
77871;BME280;67067;46.850;7.578;2023-06-10T01:16:00;94957.78;;;15.56;59.06
77871;BME280;67067;46.850;7.578;2023-06-10T01:17:01;94955.91;;;15.57;59.24
77871;BME280;67067;46.850;7.578;2023-06-10T01:18:10;94957.50;;;15.58;58.85
77871;BME280;67067;46.850;7.578;2023-06-10T01:19:16;94960.16;;;15.58;59.04
77871;BME280;67067;46.850;7.578;2023-06-10T01:20:19;94958.84;;;15.55;59.38
77871;BME280;67067;46.850;7.578;2023-06-10T01:21:23;94961.25;;;15.57;59.08
77871;BME280;67067;46.850;7.578;2023-06-10T01:22:26;94958.00;;;15.60;58.99
77871;BME280;67067;46.850;7.578;2023-06-10T01:23:33;94957.19;;;15.59;59.15
77871;BME280;67067;46.850;7.578;2023-06-10T01:24:37;94959.09;;;15.59;59.39
77871;BME280;67067;46.850;7.578;2023-06-10T01:25:43;94960.38;;;15.61;58.88
77871;BME280;67067;46.850;7.578;2023-06-10T01:26:48;94964.13;;;15.60;59.32
77871;BME280;67067;46.850;7.578;2023-06-10T01:27:54;94962.03;;;15.57;59.50
77871;BME280;67067;46.850;7.578;2023-06-10T01:28:58;94962.91;;;15.53;59.29
77871;BME280;67067;46.850;7.578;2023-06-10T01:30:05;94962.19;;;15.47;59.90
77871;BME280;67067;46.850;7.578;2023-06-10T01:31:11;94963.56;;;15.44;59.76
77871;BME280;67067;46.850;7.578;2023-06-10T01:32:21;94965.94;;;15.46;59.85
77871;BME280;67067;46.850;7.578;2023-06-10T01:33:26;94964.34;;;15.45;59.54
77871;BME280;67067;46.850;7.578;2023-06-10T01:34:29;94960.47;;;15.37;60.38
77871;BME280;67067;46.850;7.578;2023-06-10T01:35:33;94959.94;;;15.35;60.02
77871;BME280;67067;46.850;7.578;2023-06-10T01:36:38;94954.84;;;15.39;60.08
77871;BME280;67067;46.850;7.578;2023-06-10T01:37:43;94958.75;;;15.46;59.41
77871;BME280;67067;46.850;7.578;2023-06-10T01:38:47;94966.16;;;15.50;59.34
77871;BME280;67067;46.850;7.578;2023-06-10T01:39:49;94959.75;;;15.51;59.25
77871;BME280;67067;46.850;7.578;2023-06-10T01:40:51;94967.44;;;15.52;59.16
77871;BME280;67067;46.850;7.578;2023-06-10T01:41:54;94959.16;;;15.54;59.28
77871;BME280;67067;46.850;7.578;2023-06-10T01:42:57;94963.41;;;15.55;59.21
77871;BME280;67067;46.850;7.578;2023-06-10T01:43:58;94966.59;;;15.57;58.93
77871;BME280;67067;46.850;7.578;2023-06-10T01:45:00;94966.59;;;15.57;58.91
77871;BME280;67067;46.850;7.578;2023-06-10T01:46:02;94968.94;;;15.58;58.99
77871;BME280;67067;46.850;7.578;2023-06-10T01:47:04;94964.19;;;15.55;59.03
77871;BME280;67067;46.850;7.578;2023-06-10T01:48:06;94965.28;;;15.54;58.89
77871;BME280;67067;46.850;7.578;2023-06-10T01:49:07;94969.84;;;15.54;59.09
77871;BME280;67067;46.850;7.578;2023-06-10T01:50:09;94973.28;;;15.54;58.97
77871;BME280;67067;46.850;7.578;2023-06-10T01:51:11;94967.94;;;15.54;58.69
77871;BME280;67067;46.850;7.578;2023-06-10T01:52:13;94967.94;;;15.54;58.97
77871;BME280;67067;46.850;7.578;2023-06-10T01:53:15;94974.88;;;15.55;58.79
77871;BME280;67067;46.850;7.578;2023-06-10T01:54:17;94967.38;;;15.57;58.74
77871;BME280;67067;46.850;7.578;2023-06-10T01:55:20;94968.94;;;15.58;58.56
77871;BME280;67067;46.850;7.578;2023-06-10T01:56:21;94963.13;;;15.56;58.58
77871;BME280;67067;46.850;7.578;2023-06-10T01:57:23;94963.41;;;15.55;58.88
77871;BME280;67067;46.850;7.578;2023-06-10T01:58:24;94962.34;;;15.56;58.75
77871;BME280;67067;46.850;7.578;2023-06-10T01:59:29;94962.34;;;15.56;58.76
77871;BME280;67067;46.850;7.578;2023-06-10T02:00:31;94966.34;;;15.53;58.74
77871;BME280;67067;46.850;7.578;2023-06-10T02:01:33;94960.25;;;15.53;59.04
77871;BME280;67067;46.850;7.578;2023-06-10T02:02:37;94958.16;;;15.50;59.58
77871;BME280;67067;46.850;7.578;2023-06-10T02:03:40;94963.00;;;15.48;59.01
77871;BME280;67067;46.850;7.578;2023-06-10T02:04:43;94965.94;;;15.46;59.21
77871;BME280;67067;46.850;7.578;2023-06-10T02:05:44;94968.59;;;15.46;58.82
77871;BME280;67067;46.850;7.578;2023-06-10T02:06:46;94964.06;;;15.46;58.97
77871;BME280;67067;46.850;7.578;2023-06-10T02:07:51;94964.56;;;15.49;58.96
77871;BME280;67067;46.850;7.578;2023-06-10T02:08:52;94968.53;;;15.51;58.66
77871;BME280;67067;46.850;7.578;2023-06-10T02:09:55;94968.31;;;15.48;58.88
77871;BME280;67067;46.850;7.578;2023-06-10T02:10:56;94967.41;;;15.38;59.61
77871;BME280;67067;46.850;7.578;2023-06-10T02:11:58;94968.97;;;15.39;58.92
77871;BME280;67067;46.850;7.578;2023-06-10T02:12:59;94968.97;;;15.39;59.06
77871;BME280;67067;46.850;7.578;2023-06-10T02:14:01;94978.06;;;15.38;59.13
77871;BME280;67067;46.850;7.578;2023-06-10T02:15:03;94970.06;;;15.38;59.13
77871;BME280;67067;46.850;7.578;2023-06-10T02:16:04;94970.56;;;15.40;59.11
77871;BME280;67067;46.850;7.578;2023-06-10T02:17:07;94967.91;;;15.40;59.22
77871;BME280;67067;46.850;7.578;2023-06-10T02:18:09;94973.22;;;15.40;59.42
77871;BME280;67067;46.850;7.578;2023-06-10T02:19:12;94974.31;;;15.39;59.27
77871;BME280;67067;46.850;7.578;2023-06-10T02:20:14;94972.72;;;15.38;59.05
77871;BME280;67067;46.850;7.578;2023-06-10T02:21:18;94971.66;;;15.39;59.20
77871;BME280;67067;46.850;7.578;2023-06-10T02:22:20;94974.50;;;15.43;59.00
77871;BME280;67067;46.850;7.578;2023-06-10T02:23:22;94977.19;;;15.43;59.45
77871;BME280;67067;46.850;7.578;2023-06-10T02:24:23;94975.00;;;15.45;59.19
77871;BME280;67067;46.850;7.578;2023-06-10T02:25:25;94980.56;;;15.49;58.97
77871;BME280;67067;46.850;7.578;2023-06-10T02:26:27;94980.56;;;15.49;58.95
77871;BME280;67067;46.850;7.578;2023-06-10T02:27:32;94979.78;;;15.48;58.92
77871;BME280;67067;46.850;7.578;2023-06-10T02:28:36;94981.94;;;15.46;58.67
77871;BME280;67067;46.850;7.578;2023-06-10T02:29:41;94979.84;;;15.43;58.64
77871;BME280;67067;46.850;7.578;2023-06-10T02:30:44;94981.75;;;15.42;58.63
77871;BME280;67067;46.850;7.578;2023-06-10T02:31:46;94979.34;;;15.41;58.96
77871;BME280;67067;46.850;7.578;2023-06-10T02:32:48;94975.41;;;15.38;58.83
77871;BME280;67067;46.850;7.578;2023-06-10T02:33:53;94971.41;;;15.36;59.08
77871;BME280;67067;46.850;7.578;2023-06-10T02:34:55;94976.00;;;15.30;59.02
77871;BME280;67067;46.850;7.578;2023-06-10T02:35:58;94979.75;;;15.29;59.07
77871;BME280;67067;46.850;7.578;2023-06-10T02:37:01;94972.34;;;15.26;58.93
77871;BME280;67067;46.850;7.578;2023-06-10T02:38:04;94971.06;;;15.23;59.15
77871;BME280;67067;46.850;7.578;2023-06-10T02:39:07;94978.34;;;15.12;59.70
77871;BME280;67067;46.850;7.578;2023-06-10T02:40:09;94972.47;;;15.15;59.20
77871;BME280;67067;46.850;7.578;2023-06-10T02:41:12;94974.06;;;15.16;59.26
77871;BME280;67067;46.850;7.578;2023-06-10T02:42:15;94972.03;;;15.08;59.81
77871;BME280;67067;46.850;7.578;2023-06-10T02:43:16;94968.28;;;15.09;59.13
77871;BME280;67067;46.850;7.578;2023-06-10T02:44:18;94971.44;;;15.11;59.15
77871;BME280;67067;46.850;7.578;2023-06-10T02:45:21;94968.28;;;15.09;59.10
77871;BME280;67067;46.850;7.578;2023-06-10T02:46:22;94971.50;;;15.06;59.23
77871;BME280;67067;46.850;7.578;2023-06-10T02:47:25;94971.00;;;15.04;59.17
77871;BME280;67067;46.850;7.578;2023-06-10T02:48:27;94977.91;;;15.05;59.02
77871;BME280;67067;46.850;7.578;2023-06-10T02:49:30;94974.25;;;15.01;59.17
77871;BME280;67067;46.850;7.578;2023-06-10T02:50:33;94971.59;;;15.01;59.31
77871;BME280;67067;46.850;7.578;2023-06-10T02:51:59;94973.75;;;14.99;59.23
77871;BME280;67067;46.850;7.578;2023-06-10T02:53:00;94975.09;;;14.96;59.35
77871;BME280;67067;46.850;7.578;2023-06-10T02:54:02;94972.72;;;14.95;59.65
77871;BME280;67067;46.850;7.578;2023-06-10T02:55:04;94976.69;;;14.97;59.40
77871;BME280;67067;46.850;7.578;2023-06-10T02:56:07;94977.25;;;14.94;59.91
77871;BME280;67067;46.850;7.578;2023-06-10T02:57:09;94975.66;;;14.93;59.84
77871;BME280;67067;46.850;7.578;2023-06-10T02:58:11;94977.47;;;14.98;59.79
77871;BME280;67067;46.850;7.578;2023-06-10T02:59:14;94976.91;;;15.01;59.83
77871;BME280;67067;46.850;7.578;2023-06-10T03:00:15;94982.16;;;15.06;59.59
77871;BME280;67067;46.850;7.578;2023-06-10T03:01:23;94981.09;;;15.07;59.42
77871;BME280;67067;46.850;7.578;2023-06-10T03:02:35;94981.59;;;15.09;59.40
77871;BME280;67067;46.850;7.578;2023-06-10T03:03:39;94981.59;;;15.09;59.48
77871;BME280;67067;46.850;7.578;2023-06-10T03:04:47;94982.63;;;15.13;59.26
77871;BME280;67067;46.850;7.578;2023-06-10T03:05:51;94985.31;;;15.13;59.29
77871;BME280;67067;46.850;7.578;2023-06-10T03:06:55;94981.56;;;15.14;58.87
77871;BME280;67067;46.850;7.578;2023-06-10T03:08:03;94979.44;;;15.11;58.90
77871;BME280;67067;46.850;7.578;2023-06-10T03:09:09;94985.31;;;15.13;58.81
77871;BME280;67067;46.850;7.578;2023-06-10T03:10:17;94983.69;;;15.12;59.10
77871;BME280;67067;46.850;7.578;2023-06-10T03:11:19;94988.25;;;15.12;58.98
77871;BME280;67067;46.850;7.578;2023-06-10T03:12:23;94985.84;;;15.10;59.11
77871;BME280;67067;46.850;7.578;2023-06-10T03:13:27;94985.66;;;15.07;59.99
77871;BME280;67067;46.850;7.578;2023-06-10T03:14:31;94984.84;;;15.06;59.59
77871;BME280;67067;46.850;7.578;2023-06-10T03:15:33;94990.47;;;15.05;59.88
77871;BME280;67067;46.850;7.578;2023-06-10T03:16:38;94989.66;;;15.04;59.85
77871;BME280;67067;46.850;7.578;2023-06-10T03:17:44;94987.50;;;15.06;59.96
77871;BME280;67067;46.850;7.578;2023-06-10T03:18:46;94989.59;;;15.09;59.73
77871;BME280;67067;46.850;7.578;2023-06-10T03:19:48;94990.91;;;15.12;59.62
77871;BME280;67067;46.850;7.578;2023-06-10T03:20:53;94987.69;;;15.15;59.72
77871;BME280;67067;46.850;7.578;2023-06-10T03:22:08;94998.34;;;15.15;59.47
77871;BME280;67067;46.850;7.578;2023-06-10T03:23:14;94991.19;;;15.10;59.58
77871;BME280;67067;46.850;7.578;2023-06-10T03:24:17;94996.50;;;15.10;60.01
77871;BME280;67067;46.850;7.578;2023-06-10T03:25:19;94987.22;;;15.08;59.90
77871;BME280;67067;46.850;7.578;2023-06-10T03:26:26;94991.47;;;15.09;59.76
77871;BME280;67067;46.850;7.578;2023-06-10T03:27:29;94994.41;;;15.07;60.03
77871;BME280;67067;46.850;7.578;2023-06-10T03:28:34;94991.47;;;15.09;59.88
77871;BME280;67067;46.850;7.578;2023-06-10T03:29:36;94996.00;;;15.08;59.74
77871;BME280;67067;46.850;7.578;2023-06-10T03:30:39;94993.84;;;15.10;59.74
77871;BME280;67067;46.850;7.578;2023-06-10T03:31:41;94994.34;;;15.12;59.54
77871;BME280;67067;46.850;7.578;2023-06-10T03:32:43;94996.47;;;15.15;59.47
77871;BME280;67067;46.850;7.578;2023-06-10T03:33:48;94993.22;;;15.18;59.38
77871;BME280;67067;46.850;7.578;2023-06-10T03:34:50;94993.22;;;15.18;59.44
77871;BME280;67067;46.850;7.578;2023-06-10T03:35:53;94994.03;;;15.19;59.55
77871;BME280;67067;46.850;7.578;2023-06-10T03:36:55;94998.00;;;15.22;59.53
77871;BME280;67067;46.850;7.578;2023-06-10T03:37:56;94998.50;;;15.24;59.33
77871;BME280;67067;46.850;7.578;2023-06-10T03:38:59;95002.75;;;15.25;59.09
77871;BME280;67067;46.850;7.578;2023-06-10T03:40:01;94997.41;;;15.25;58.87
77871;BME280;67067;46.850;7.578;2023-06-10T03:41:03;94995.63;;;15.20;58.79
77871;BME280;67067;46.850;7.578;2023-06-10T03:42:05;95005.47;;;15.20;58.98
77871;BME280;67067;46.850;7.578;2023-06-10T03:43:07;95002.31;;;15.17;58.90
77871;BME280;67067;46.850;7.578;2023-06-10T03:44:09;94998.06;;;15.16;59.09
77871;BME280;67067;46.850;7.578;2023-06-10T03:45:11;95007.44;;;15.14;59.10
77871;BME280;67067;46.850;7.578;2023-06-10T03:46:13;95004.50;;;15.10;59.07
77871;BME280;67067;46.850;7.578;2023-06-10T03:47:16;95010.47;;;15.02;59.35
77871;BME280;67067;46.850;7.578;2023-06-10T03:48:18;94998.72;;;15.03;59.21
77871;BME280;67067;46.850;7.578;2023-06-10T03:49:24;94995.00;;;15.04;59.11
77871;BME280;67067;46.850;7.578;2023-06-10T03:50:30;95003.50;;;15.06;59.05
77871;BME280;67067;46.850;7.578;2023-06-10T03:51:31;95006.16;;;15.06;59.11
77871;BME280;67067;46.850;7.578;2023-06-10T03:52:33;95008.56;;;15.08;59.19
77871;BME280;67067;46.850;7.578;2023-06-10T03:53:35;95010.13;;;15.09;59.29
77871;BME280;67067;46.850;7.578;2023-06-10T03:54:42;95002.41;;;15.07;59.33
77871;BME280;67067;46.850;7.578;2023-06-10T03:55:43;95007.75;;;15.07;59.20
77871;BME280;67067;46.850;7.578;2023-06-10T03:56:46;95004.56;;;15.05;59.57
77871;BME280;67067;46.850;7.578;2023-06-10T03:57:49;95002.41;;;15.07;59.43
77871;BME280;67067;46.850;7.578;2023-06-10T03:58:52;95001.34;;;15.08;59.48
77871;BME280;67067;46.850;7.578;2023-06-10T03:59:53;95002.72;;;15.06;59.67
77871;BME280;67067;46.850;7.578;2023-06-10T04:00:55;95001.06;;;15.10;59.54
77871;BME280;67067;46.850;7.578;2023-06-10T04:02:04;95003.69;;;15.15;59.16
77871;BME280;67067;46.850;7.578;2023-06-10T04:03:08;95009.03;;;15.15;59.10
77871;BME280;67067;46.850;7.578;2023-06-10T04:04:15;95007.69;;;15.12;59.37
77871;BME280;67067;46.850;7.578;2023-06-10T04:05:20;95005.00;;;15.12;59.13
77871;BME280;67067;46.850;7.578;2023-06-10T04:06:23;95009.84;;;15.10;59.56
77871;BME280;67067;46.850;7.578;2023-06-10T04:07:28;95002.34;;;15.12;59.43
77871;BME280;67067;46.850;7.578;2023-06-10T04:08:31;95005.53;;;15.14;59.09
77871;BME280;67067;46.850;7.578;2023-06-10T04:09:34;95001.03;;;15.15;59.39
77871;BME280;67067;46.850;7.578;2023-06-10T04:10:37;95006.88;;;15.17;59.39
77871;BME280;67067;46.850;7.578;2023-06-10T04:11:41;95005.47;;;15.20;59.13
77871;BME280;67067;46.850;7.578;2023-06-10T04:12:45;95000.97;;;15.20;59.14
77871;BME280;67067;46.850;7.578;2023-06-10T04:13:48;95002.88;;;15.14;59.51
77871;BME280;67067;46.850;7.578;2023-06-10T04:14:53;95004.41;;;15.21;59.22
77871;BME280;67067;46.850;7.578;2023-06-10T04:15:57;95009.47;;;15.22;59.51
77871;BME280;67067;46.850;7.578;2023-06-10T04:16:59;95006.50;;;15.24;59.36
77871;BME280;67067;46.850;7.578;2023-06-10T04:18:01;95003.03;;;15.23;59.00
77871;BME280;67067;46.850;7.578;2023-06-10T04:19:05;95010.75;;;15.25;59.18
77871;BME280;67067;46.850;7.578;2023-06-10T04:20:07;95005.72;;;15.23;59.61
77871;BME280;67067;46.850;7.578;2023-06-10T04:21:10;95002.16;;;15.28;59.51
77871;BME280;67067;46.850;7.578;2023-06-10T04:22:12;95003.47;;;15.30;59.22
77871;BME280;67067;46.850;7.578;2023-06-10T04:23:14;95006.34;;;15.34;59.33
77871;BME280;67067;46.850;7.578;2023-06-10T04:24:17;95006.72;;;15.27;59.47
77871;BME280;67067;46.850;7.578;2023-06-10T04:25:19;95011.69;;;15.34;59.17
77871;BME280;67067;46.850;7.578;2023-06-10T04:26:23;95009.53;;;15.36;59.28
77871;BME280;67067;46.850;7.578;2023-06-10T04:27:28;95007.38;;;15.38;59.25
77871;BME280;67067;46.850;7.578;2023-06-10T04:28:30;95019.06;;;15.42;59.27
77871;BME280;67067;46.850;7.578;2023-06-10T04:29:32;95013.72;;;15.42;59.66
77871;BME280;67067;46.850;7.578;2023-06-10T04:32:30;95015.53;;;15.47;59.37
77871;BME280;67067;46.850;7.578;2023-06-10T04:33:34;95017.91;;;15.49;59.53
77871;BME280;67067;46.850;7.578;2023-06-10T04:34:37;95021.09;;;15.51;59.43
77871;BME280;67067;46.850;7.578;2023-06-10T04:35:41;95019.50;;;15.50;59.65
77871;BME280;67067;46.850;7.578;2023-06-10T04:36:47;95020.56;;;15.49;59.53
77871;BME280;67067;46.850;7.578;2023-06-10T04:37:50;95025.91;;;15.49;59.43
77871;BME280;67067;46.850;7.578;2023-06-10T04:38:52;95025.59;;;15.50;59.58
77871;BME280;67067;46.850;7.578;2023-06-10T04:39:54;95025.41;;;15.46;59.92
77871;BME280;67067;46.850;7.578;2023-06-10T04:40:58;95023.00;;;15.45;59.74
77871;BME280;67067;46.850;7.578;2023-06-10T04:42:06;95026.75;;;15.44;59.97
77871;BME280;67067;46.850;7.578;2023-06-10T04:43:08;95025.69;;;15.45;59.94
77871;BME280;67067;46.850;7.578;2023-06-10T04:44:12;95027.06;;;15.42;60.22
77871;BME280;67067;46.850;7.578;2023-06-10T04:45:15;95028.16;;;15.41;60.50
77871;BME280;67067;46.850;7.578;2023-06-10T04:46:17;95024.41;;;15.42;60.17
77871;BME280;67067;46.850;7.578;2023-06-10T04:47:18;95039.31;;;15.43;60.25
77871;BME280;67067;46.850;7.578;2023-06-10T04:48:20;95031.25;;;15.49;59.91
77871;BME280;67067;46.850;7.578;2023-06-10T04:49:21;95025.91;;;15.49;59.97
77871;BME280;67067;46.850;7.578;2023-06-10T04:50:23;95024.84;;;15.50;59.89
77871;BME280;67067;46.850;7.578;2023-06-10T04:51:25;95030.66;;;15.52;60.01
77871;BME280;67067;46.850;7.578;2023-06-10T04:52:27;95023.75;;;15.51;59.95
77871;BME280;67067;46.850;7.578;2023-06-10T04:53:29;95025.59;;;15.50;59.73
77871;BME280;67067;46.850;7.578;2023-06-10T04:54:30;95029.00;;;15.56;59.68
77871;BME280;67067;46.850;7.578;2023-06-10T04:55:32;95026.84;;;15.58;59.70
77871;BME280;67067;46.850;7.578;2023-06-10T04:56:37;95034.34;;;15.56;59.65
77871;BME280;67067;46.850;7.578;2023-06-10T04:57:40;95025.34;;;15.52;60.11
77871;BME280;67067;46.850;7.578;2023-06-10T04:58:42;95023.81;;;15.45;60.29
77871;BME280;67067;46.850;7.578;2023-06-10T04:59:43;95023.19;;;15.54;59.74
77871;BME280;67067;46.850;7.578;2023-06-10T05:00:45;95028.34;;;15.45;60.29
77871;BME280;67067;46.850;7.578;2023-06-10T05:01:46;95036.00;;;15.52;59.93
77871;BME280;67067;46.850;7.578;2023-06-10T05:02:48;95030.94;;;15.50;59.99
77871;BME280;67067;46.850;7.578;2023-06-10T05:03:51;95035.69;;;15.53;59.86
77871;BME280;67067;46.850;7.578;2023-06-10T05:04:53;95037.50;;;15.58;59.87
77871;BME280;67067;46.850;7.578;2023-06-10T05:05:56;95041.47;;;15.60;59.69
77871;BME280;67067;46.850;7.578;2023-06-10T05:06:58;95034.78;;;15.63;59.84
77871;BME280;67067;46.850;7.578;2023-06-10T05:07:59;95041.19;;;15.62;60.11
77871;BME280;67067;46.850;7.578;2023-06-10T05:09:01;95034.47;;;15.65;59.76
77871;BME280;67067;46.850;7.578;2023-06-10T05:10:03;95039.72;;;15.70;59.65
77871;BME280;67067;46.850;7.578;2023-06-10T05:11:07;95036.22;;;15.74;59.57
77871;BME280;67067;46.850;7.578;2023-06-10T05:12:08;95034.03;;;15.76;59.67
77871;BME280;67067;46.850;7.578;2023-06-10T05:13:10;95035.03;;;15.81;59.43
77871;BME280;67067;46.850;7.578;2023-06-10T05:14:12;95040.31;;;15.86;59.15
77871;BME280;67067;46.850;7.578;2023-06-10T05:15:17;95042.91;;;15.91;59.30
77871;BME280;67067;46.850;7.578;2023-06-10T05:16:21;95042.84;;;15.96;59.22
77871;BME280;67067;46.850;7.578;2023-06-10T05:17:23;95038.00;;;15.98;58.98
77871;BME280;67067;46.850;7.578;2023-06-10T05:18:26;95043.56;;;16.02;59.01
77871;BME280;67067;46.850;7.578;2023-06-10T05:19:28;95048.81;;;16.07;58.87
77871;BME280;67067;46.850;7.578;2023-06-10T05:20:32;95047.47;;;16.10;58.66
77871;BME280;67067;46.850;7.578;2023-06-10T05:21:34;95045.31;;;16.12;58.71
77871;BME280;67067;46.850;7.578;2023-06-10T05:22:35;95044.81;;;16.10;58.96
77871;BME280;67067;46.850;7.578;2023-06-10T05:23:37;95047.75;;;16.08;58.66
77871;BME280;67067;46.850;7.578;2023-06-10T05:24:39;95050.78;;;16.01;59.02
77871;BME280;67067;46.850;7.578;2023-06-10T05:25:41;95044.88;;;16.04;58.82
77871;BME280;67067;46.850;7.578;2023-06-10T05:26:43;95039.75;;;16.08;58.81
77871;BME280;67067;46.850;7.578;2023-06-10T05:27:45;95048.06;;;16.07;58.76
77871;BME280;67067;46.850;7.578;2023-06-10T05:28:47;95045.56;;;16.10;58.87
77871;BME280;67067;46.850;7.578;2023-06-10T05:29:49;95046.97;;;16.08;59.27
77871;BME280;67067;46.850;7.578;2023-06-10T05:30:50;95039.75;;;16.08;59.32
77871;BME280;67067;46.850;7.578;2023-06-10T05:31:52;95050.13;;;16.10;59.18
77871;BME280;67067;46.850;7.578;2023-06-10T05:32:54;95039.97;;;16.12;59.13
77871;BME280;67067;46.850;7.578;2023-06-10T05:33:57;95037.78;;;16.14;59.09
77871;BME280;67067;46.850;7.578;2023-06-10T05:35:00;95044.50;;;16.11;59.03
77871;BME280;67067;46.850;7.578;2023-06-10T05:36:02;95042.53;;;16.17;59.03
77871;BME280;67067;46.850;7.578;2023-06-10T05:37:04;95046.06;;;16.12;59.04
77871;BME280;67067;46.850;7.578;2023-06-10T05:38:06;95048.47;;;16.14;59.20
77871;BME280;67067;46.850;7.578;2023-06-10T05:39:09;95042.81;;;16.15;59.21